createdAt,value
2019-03-24T00:01:50.803Z,77.50
2019-03-24T00:04:21.913Z,77.92
2019-03-24T00:06:53.130Z,78.03
2019-03-24T00:09:24.366Z,78.26
2019-03-24T00:11:55.566Z,78.25
2019-03-24T00:14:26.871Z,78.50
2019-03-24T00:16:57.878Z,78.84
2019-03-24T00:19:29.064Z,78.94
2019-03-24T00:22:00.194Z,78.42
2019-03-24T00:24:31.486Z,78.67
2019-03-24T00:27:02.621Z,78.98
2019-03-24T00:29:33.671Z,78.96
2019-03-24T00:32:04.622Z,78.83
2019-03-24T00:34:35.681Z,78.98
2019-03-24T00:37:06.765Z,79.28
2019-03-24T00:39:38.052Z,79.30
2019-03-24T00:42:09.014Z,79.50
2019-03-24T00:44:39.971Z,79.84
2019-03-24T00:47:11.047Z,80.21
2019-03-24T00:49:42.295Z,80.48
2019-03-24T00:52:13.164Z,80.19
2019-03-24T00:54:44.679Z,79.64
2019-03-24T00:57:16.005Z,79.42
2019-03-24T00:59:47.028Z,79.53
2019-03-24T01:02:18.100Z,80.08
2019-03-24T01:04:49.246Z,80.34
2019-03-24T01:07:20.391Z,79.89
2019-03-24T01:09:51.316Z,79.90
2019-03-24T01:12:22.752Z,80.28
2019-03-24T01:14:54.017Z,80.93
2019-03-24T01:17:24.927Z,81.19
2019-03-24T01:19:56.181Z,81.27
2019-03-24T01:22:27.318Z,81.12
2019-03-24T01:24:58.525Z,80.83
2019-03-24T01:27:29.704Z,80.45
2019-03-24T01:30:00.820Z,80.36
2019-03-24T01:32:33.037Z,80.57
2019-03-24T01:35:04.294Z,80.79
2019-03-24T01:37:35.474Z,81.20
2019-03-24T01:40:07.732Z,81.76
2019-03-24T01:42:38.787Z,82.19
2019-03-24T01:45:11.726Z,82.61
2019-03-24T01:47:42.583Z,82.84
2019-03-24T01:50:13.496Z,82.74
2019-03-24T01:52:44.345Z,82.50
2019-03-24T01:55:15.927Z,82.57
2019-03-24T01:57:46.855Z,82.79
2019-03-24T02:00:19.075Z,82.64
2019-03-24T02:02:50.110Z,82.83
2019-03-24T02:05:21.265Z,82.72
2019-03-24T02:07:51.976Z,82.53
2019-03-24T02:10:23.036Z,82.33
2019-03-24T02:12:54.331Z,82.42
2019-03-24T02:15:25.216Z,82.45
2019-03-24T02:17:56.237Z,82.24
2019-03-24T02:20:27.255Z,81.96
2019-03-24T02:22:58.236Z,82.25
2019-03-24T02:25:29.854Z,82.75
2019-03-24T02:28:00.821Z,83.23
2019-03-24T02:30:31.948Z,83.40
2019-03-24T02:33:03.098Z,83.36
2019-03-24T02:35:34.516Z,82.93
2019-03-24T02:38:05.555Z,83.01
2019-03-24T02:40:36.516Z,82.53
2019-03-24T02:43:07.759Z,82.34
2019-03-24T02:45:39.158Z,82.66
2019-03-24T02:48:10.397Z,83.11
2019-03-24T02:50:41.450Z,83.53
2019-03-24T02:53:12.667Z,83.92
2019-03-24T02:55:43.851Z,84.13
2019-03-24T02:58:14.896Z,84.02
2019-03-24T03:00:45.958Z,83.74
2019-03-24T03:03:18.373Z,83.79
2019-03-24T03:05:49.525Z,83.95
2019-03-24T03:08:20.394Z,84.04
2019-03-24T03:10:51.319Z,84.31
2019-03-24T03:13:22.335Z,84.66
2019-03-24T03:15:53.145Z,84.84
2019-03-24T03:18:23.878Z,84.66
2019-03-24T03:20:54.874Z,84.91
2019-03-24T03:23:25.661Z,85.03
2019-03-24T03:25:56.397Z,85.29
2019-03-24T03:28:27.298Z,85.19
2019-03-24T03:30:58.381Z,85.28
2019-03-24T03:33:29.755Z,85.53
2019-03-24T03:36:00.611Z,85.76
2019-03-24T03:38:31.666Z,86.00
2019-03-24T03:41:03.149Z,86.43
2019-03-24T03:43:34.980Z,86.55
2019-03-24T03:46:06.198Z,86.32
2019-03-24T03:48:36.870Z,85.74
2019-03-24T03:51:07.872Z,85.29
2019-03-24T03:53:38.854Z,85.22
2019-03-24T03:56:10.818Z,85.02
2019-03-24T03:58:41.679Z,85.27
2019-03-24T04:01:12.615Z,85.58
2019-03-24T04:03:43.288Z,85.78
2019-03-24T04:06:14.610Z,85.71
2019-03-24T04:08:45.695Z,85.58
2019-03-24T04:11:16.968Z,85.84
2019-03-24T04:13:47.582Z,85.78
2019-03-24T04:16:18.366Z,85.90
2019-03-24T04:18:49.401Z,86.35
2019-03-24T04:21:20.513Z,86.81
2019-03-24T04:23:51.190Z,86.56
2019-03-24T04:26:22.185Z,85.84
2019-03-24T04:28:53.197Z,85.73
2019-03-24T04:31:24.238Z,85.80
2019-03-24T04:33:55.178Z,86.00
2019-03-24T04:36:26.101Z,86.16
2019-03-24T04:38:56.914Z,86.32
2019-03-24T04:41:28.146Z,86.21
2019-03-24T04:43:59.270Z,86.17
2019-03-24T04:46:30.616Z,86.23
2019-03-24T04:49:01.590Z,86.27
2019-03-24T04:51:33.182Z,86.46
2019-03-24T04:54:04.061Z,86.68
2019-03-24T04:56:35.170Z,86.68
2019-03-24T04:59:06.254Z,86.77
2019-03-24T05:01:37.505Z,86.71
2019-03-24T05:04:08.688Z,86.67
2019-03-24T05:06:39.868Z,86.76
2019-03-24T05:09:10.892Z,86.64
2019-03-24T05:11:42.019Z,86.62
2019-03-24T05:14:12.965Z,86.66
2019-03-24T05:16:43.846Z,86.80
2019-03-24T05:19:14.902Z,87.16
2019-03-24T05:21:45.862Z,86.85
2019-03-24T05:24:16.931Z,86.64
2019-03-24T05:26:49.894Z,86.83
2019-03-24T05:29:20.752Z,87.27
2019-03-24T05:31:51.638Z,87.58
2019-03-24T05:34:22.877Z,87.47
2019-03-24T05:36:53.911Z,87.09
2019-03-24T05:39:24.922Z,86.69
2019-03-24T05:41:56.325Z,86.93
2019-03-24T05:44:27.340Z,87.14
2019-03-24T05:46:59.112Z,87.22
2019-03-24T05:49:30.065Z,87.37
2019-03-24T05:52:01.266Z,87.32
2019-03-24T05:54:32.389Z,86.41
2019-03-24T05:57:03.465Z,85.89
2019-03-24T05:59:34.451Z,85.88
2019-03-24T06:02:06.698Z,86.39
2019-03-24T06:04:37.979Z,86.53
2019-03-24T06:07:09.013Z,86.54
2019-03-24T06:09:40.113Z,86.58
2019-03-24T06:12:11.262Z,86.43
2019-03-24T06:14:42.428Z,86.16
2019-03-24T06:17:13.939Z,85.75
2019-03-24T06:19:44.885Z,85.29
2019-03-24T06:22:15.695Z,85.18
2019-03-24T06:24:46.569Z,85.31
2019-03-24T06:27:17.457Z,84.41
2019-03-24T06:29:48.562Z,83.97
2019-03-24T06:32:19.807Z,83.51
2019-03-24T06:34:50.957Z,82.85
2019-03-24T06:37:21.922Z,82.12
2019-03-24T06:39:52.840Z,81.45
2019-03-24T06:42:23.753Z,80.77
2019-03-24T06:44:54.733Z,80.62
2019-03-24T06:47:26.076Z,80.26
2019-03-24T06:49:57.149Z,79.61
2019-03-24T06:52:28.446Z,78.63
2019-03-24T06:54:59.428Z,78.42
2019-03-24T06:57:30.612Z,77.67
2019-03-24T07:00:04.186Z,76.86
2019-03-24T07:02:35.868Z,76.09
2019-03-24T07:05:06.830Z,75.33
2019-03-24T07:07:38.053Z,74.45
2019-03-24T07:10:09.647Z,74.14
2019-03-24T07:12:40.393Z,73.46
2019-03-24T07:15:11.720Z,72.85
2019-03-24T07:17:42.834Z,72.10
2019-03-24T07:20:13.847Z,71.94
2019-03-24T07:22:45.963Z,71.70
2019-03-24T07:25:17.191Z,70.87
2019-03-24T07:27:48.488Z,70.21
2019-03-24T07:30:20.622Z,69.53
2019-03-24T07:32:51.843Z,68.44
2019-03-24T07:35:23.003Z,67.43
2019-03-24T07:37:54.128Z,67.14
2019-03-24T07:40:25.304Z,65.55
2019-03-24T07:42:56.008Z,64.53
2019-03-24T07:45:27.037Z,62.96
2019-03-24T07:47:58.138Z,61.87
2019-03-24T07:50:30.019Z,60.40
2019-03-24T07:53:01.234Z,58.74
2019-03-24T07:55:32.504Z,58.22
2019-03-24T07:58:03.601Z,56.02
2019-03-24T08:00:35.974Z,53.63
2019-03-24T08:03:06.835Z,51.07
2019-03-24T08:05:38.079Z,50.42
2019-03-24T08:08:09.456Z,49.63
2019-03-24T08:10:42.143Z,47.70
2019-03-24T08:13:12.919Z,47.10
2019-03-24T08:15:44.033Z,47.18
2019-03-24T08:18:14.877Z,44.75
2019-03-24T08:20:45.551Z,43.84
2019-03-24T08:23:16.216Z,43.51
2019-03-24T08:25:47.275Z,44.04
2019-03-24T08:28:18.519Z,42.00
2019-03-24T08:30:49.829Z,40.21
2019-03-24T08:33:20.881Z,38.99
2019-03-24T08:35:54.089Z,37.33
2019-03-24T08:38:25.378Z,36.29
2019-03-24T08:40:56.241Z,35.22
2019-03-24T08:43:27.108Z,35.00
2019-03-24T08:45:59.576Z,33.82
2019-03-24T08:48:40.372Z,33.47
2019-03-24T08:51:03.131Z,34.29
2019-03-24T08:53:34.413Z,33.76
2019-03-24T08:56:06.259Z,35.25
2019-03-24T08:58:37.452Z,35.24
2019-03-24T09:01:09.291Z,33.23
2019-03-24T09:03:40.185Z,31.90
2019-03-24T09:06:11.472Z,30.19
2019-03-24T09:08:42.408Z,30.34
2019-03-24T09:11:13.467Z,29.42
2019-03-24T09:13:45.919Z,29.00
2019-03-24T09:16:17.314Z,28.13
2019-03-24T09:18:52.977Z,27.82
2019-03-24T09:21:20.978Z,27.33
2019-03-24T09:23:52.335Z,27.76
2019-03-24T09:26:24.260Z,27.14
2019-03-24T09:28:55.424Z,25.45
2019-03-24T09:31:26.766Z,25.78
2019-03-24T09:33:59.255Z,25.16
2019-03-24T09:36:30.183Z,24.17
2019-03-24T09:39:01.111Z,24.01
2019-03-24T09:41:33.362Z,24.98
2019-03-24T09:44:04.468Z,24.47
2019-03-24T09:46:36.511Z,23.31
2019-03-24T09:49:07.815Z,23.58
2019-03-24T09:51:40.424Z,22.83
2019-03-24T09:54:12.413Z,22.62
2019-03-24T09:56:43.403Z,21.75
2019-03-24T09:59:14.381Z,21.15
2019-03-24T10:01:46.981Z,20.42
2019-03-24T10:04:18.206Z,19.83
2019-03-24T10:06:50.934Z,19.60
2019-03-24T10:09:21.861Z,20.21
2019-03-24T10:11:53.738Z,19.40
2019-03-24T10:14:25.900Z,19.94
2019-03-24T10:16:56.809Z,19.17
2019-03-24T10:19:27.753Z,18.72
2019-03-24T10:21:58.951Z,18.22
2019-03-24T10:24:30.131Z,17.90
2019-03-24T10:27:01.340Z,17.73
2019-03-24T10:29:33.790Z,17.36
2019-03-24T10:32:05.523Z,17.30
2019-03-24T10:34:35.255Z,16.91
2019-03-24T10:37:06.884Z,16.60
2019-03-24T10:39:38.432Z,16.61
2019-03-24T10:42:10.339Z,17.12
2019-03-24T10:44:41.498Z,16.71
2019-03-24T10:47:13.796Z,17.98
2019-03-24T10:49:46.833Z,17.52
2019-03-24T10:52:18.192Z,16.92
2019-03-24T10:54:49.123Z,16.34
2019-03-24T10:57:22.107Z,15.66
2019-03-24T10:59:53.539Z,15.00
2019-03-24T11:02:25.711Z,14.87
2019-03-24T11:04:56.864Z,15.80
2019-03-24T11:07:28.208Z,15.31
2019-03-24T11:09:59.174Z,14.56
2019-03-24T11:12:31.563Z,14.74
2019-03-24T11:15:02.779Z,15.94
2019-03-24T11:17:34.574Z,14.76
2019-03-24T11:20:06.715Z,14.12
2019-03-24T11:22:38.144Z,14.66
2019-03-24T11:25:10.788Z,14.43
2019-03-24T11:27:42.257Z,14.68
2019-03-24T11:30:16.169Z,14.84
2019-03-24T11:32:47.479Z,15.11
2019-03-24T11:35:18.652Z,14.58
2019-03-24T11:37:49.923Z,14.25
2019-03-24T11:40:21.015Z,13.71
2019-03-24T11:42:52.388Z,14.54
2019-03-24T11:45:23.479Z,16.99
2019-03-24T11:47:56.506Z,16.55
2019-03-24T11:50:27.680Z,15.84
2019-03-24T11:52:58.814Z,15.56
2019-03-24T11:55:30.003Z,15.58
2019-03-24T11:58:05.662Z,15.57
2019-03-24T12:00:36.444Z,14.96
2019-03-24T12:11:05.700Z,14.73
2019-03-24T12:13:37.198Z,14.89
2019-03-24T12:16:08.683Z,15.03
2019-03-24T12:18:39.895Z,14.88
2019-03-24T12:21:12.979Z,15.52
2019-03-24T12:23:44.229Z,15.00
2019-03-24T12:26:17.121Z,15.65
2019-03-24T12:28:48.406Z,16.39
2019-03-24T12:31:19.533Z,15.65
2019-03-24T12:33:50.887Z,15.33
2019-03-24T12:36:21.955Z,16.78
2019-03-24T12:38:53.289Z,16.24
2019-03-24T12:41:24.331Z,15.67
2019-03-24T12:43:55.573Z,15.60
2019-03-24T12:46:26.542Z,16.12
2019-03-24T12:48:57.803Z,16.18
2019-03-24T12:51:29.233Z,15.24
2019-03-24T12:54:00.321Z,14.69
2019-03-24T12:56:33.481Z,15.16
2019-03-24T12:59:04.932Z,16.30
2019-03-24T13:01:36.373Z,16.97
2019-03-24T13:04:07.891Z,16.08
2019-03-24T13:06:39.306Z,16.55
2019-03-24T13:09:10.391Z,16.05
2019-03-24T13:11:42.008Z,15.52
2019-03-24T13:14:13.348Z,15.78
2019-03-24T13:16:44.427Z,16.00
2019-03-24T13:19:15.627Z,16.33
2019-03-24T13:21:46.960Z,16.98
2019-03-24T13:24:18.105Z,16.85
2019-03-24T13:26:49.290Z,16.30
2019-03-24T13:29:20.519Z,17.24
2019-03-24T13:31:51.676Z,16.91
2019-03-24T13:34:22.955Z,16.76
2019-03-24T13:36:54.207Z,16.01
2019-03-24T13:39:25.191Z,15.52
2019-03-24T13:41:58.188Z,16.11
2019-03-24T13:44:29.515Z,17.53
2019-03-24T13:47:00.608Z,18.16
2019-03-24T13:49:33.527Z,18.30
2019-03-24T13:52:04.774Z,18.16
2019-03-24T13:54:36.130Z,17.69
2019-03-24T13:57:07.152Z,20.07
2019-03-24T13:59:38.214Z,19.09
2019-03-24T14:02:09.830Z,19.12
2019-03-24T14:04:40.944Z,21.28
2019-03-24T14:07:15.536Z,21.44
2019-03-24T14:09:46.959Z,21.20
2019-03-24T14:12:18.450Z,22.11
2019-03-24T14:14:49.649Z,23.39
2019-03-24T14:17:20.652Z,23.44
2019-03-24T14:19:51.835Z,23.53
2019-03-24T14:22:24.039Z,24.02
2019-03-24T14:24:55.102Z,24.21
2019-03-24T14:27:26.250Z,24.21
2019-03-24T14:29:57.532Z,23.02
2019-03-24T14:32:28.612Z,23.30
2019-03-24T14:35:00.272Z,23.76
2019-03-24T14:37:31.670Z,24.49
2019-03-24T14:40:05.882Z,24.72
2019-03-24T14:42:37.096Z,25.63
2019-03-24T14:45:09.401Z,27.47
2019-03-24T14:47:44.831Z,27.67
2019-03-24T14:50:16.545Z,27.63
2019-03-24T14:52:47.772Z,29.82
2019-03-24T14:55:19.104Z,30.09
2019-03-24T14:57:50.363Z,30.90
2019-03-24T15:00:30.282Z,30.45
2019-03-24T15:03:01.801Z,31.04
2019-03-24T15:05:33.304Z,31.14
2019-03-24T15:08:05.625Z,31.54
2019-03-24T15:10:38.151Z,31.39
2019-03-24T15:13:09.485Z,32.28
2019-03-24T15:15:40.992Z,32.46
2019-03-24T15:18:12.457Z,32.53
2019-03-24T15:20:44.024Z,32.86
2019-03-24T15:23:15.280Z,34.19
2019-03-24T15:25:46.615Z,35.22
2019-03-24T15:28:17.771Z,35.18
2019-03-24T15:30:50.365Z,36.14
2019-03-24T15:33:21.683Z,35.83
2019-03-24T15:35:54.082Z,36.30
2019-03-24T15:38:25.292Z,36.28
2019-03-24T15:40:56.511Z,36.45
2019-03-24T15:43:27.516Z,37.32
2019-03-24T15:45:58.884Z,38.06
2019-03-24T15:48:30.837Z,37.69
2019-03-24T15:51:02.086Z,39.14
2019-03-24T15:53:33.192Z,39.15
2019-03-24T15:56:04.503Z,39.85
2019-03-24T15:58:35.759Z,40.43
2019-03-24T16:01:08.716Z,40.30
2019-03-24T16:03:42.372Z,40.17
2019-03-24T16:06:13.311Z,40.34
2019-03-24T16:08:46.232Z,41.20
2019-03-24T16:11:17.829Z,41.50
2019-03-24T16:13:48.877Z,42.09
2019-03-24T16:16:19.976Z,42.09
2019-03-24T16:18:50.975Z,42.51
2019-03-24T16:21:28.073Z,42.47
2019-03-24T16:23:57.022Z,43.39
2019-03-24T16:26:28.685Z,44.43
2019-03-24T16:28:59.875Z,45.44
2019-03-24T16:31:30.924Z,45.64
2019-03-24T16:34:01.989Z,45.68
2019-03-24T16:36:36.052Z,45.03
2019-03-24T16:39:08.099Z,45.88
2019-03-24T16:41:42.052Z,46.27
2019-03-24T16:44:13.390Z,46.33
2019-03-24T16:46:44.586Z,47.16
2019-03-24T16:49:15.580Z,47.27
2019-03-24T16:51:46.827Z,47.89
2019-03-24T16:54:17.873Z,48.47
2019-03-24T16:56:49.075Z,48.60
2019-03-24T16:59:21.726Z,48.99
2019-03-24T17:01:52.958Z,50.16
2019-03-24T17:04:24.397Z,49.45
2019-03-24T17:06:55.991Z,50.59
2019-03-24T17:09:27.476Z,50.17
2019-03-24T17:11:58.709Z,50.82
2019-03-24T17:14:29.770Z,51.00
2019-03-24T17:17:00.896Z,51.40
2019-03-24T17:19:33.471Z,51.55
2019-03-24T17:22:04.984Z,51.97
2019-03-24T17:24:36.558Z,52.36
2019-03-24T17:27:08.501Z,53.46
2019-03-24T17:29:39.781Z,53.69
2019-03-24T17:32:11.356Z,54.13
2019-03-24T17:34:48.025Z,54.34
2019-03-24T17:37:19.109Z,54.62
2019-03-24T17:39:50.680Z,55.33
2019-03-24T17:42:22.899Z,55.56
2019-03-24T17:44:54.327Z,56.31
2019-03-24T17:47:25.448Z,56.87
2019-03-24T17:49:56.679Z,57.28
2019-03-24T17:52:27.886Z,57.98
2019-03-24T17:54:59.425Z,58.38
2019-03-24T17:57:30.881Z,58.77
2019-03-24T18:00:06.179Z,58.85
2019-03-24T18:02:38.056Z,59.69
2019-03-24T18:05:10.840Z,60.08
2019-03-24T18:07:42.043Z,60.92
2019-03-24T18:10:13.448Z,61.47
2019-03-24T18:12:45.045Z,61.60
2019-03-24T18:15:16.368Z,61.70
2019-03-24T18:17:47.627Z,61.98
2019-03-24T18:20:31.081Z,61.78
2019-03-24T18:23:02.755Z,62.30
2019-03-24T18:25:33.922Z,62.52
2019-03-24T18:28:05.543Z,62.92
2019-03-24T18:30:37.057Z,63.14
2019-03-24T18:33:08.735Z,63.02
2019-03-24T18:35:39.962Z,63.28
2019-03-24T18:38:11.332Z,63.75
2019-03-24T18:40:42.646Z,63.99
2019-03-24T18:43:13.762Z,65.50
2019-03-24T18:45:45.308Z,67.29
2019-03-24T18:48:16.910Z,66.37
2019-03-24T18:50:48.169Z,68.63
2019-03-24T18:53:19.362Z,69.14
2019-03-24T18:55:50.832Z,69.72
2019-03-24T18:58:22.133Z,68.94
2019-03-24T19:00:53.211Z,68.68
2019-03-24T19:03:24.479Z,68.53
2019-03-24T19:05:55.991Z,68.29
2019-03-24T19:08:27.264Z,68.11
2019-03-24T19:11:02.413Z,67.51
2019-03-24T19:13:35.937Z,67.69
2019-03-24T19:16:07.216Z,68.58
2019-03-24T19:18:38.692Z,68.45
2019-03-24T19:21:09.972Z,68.41
2019-03-24T19:23:41.978Z,68.81
2019-03-24T19:26:14.493Z,69.70
2019-03-24T19:28:46.930Z,70.45
2019-03-24T19:31:18.258Z,70.43
2019-03-24T19:33:49.846Z,71.12
2019-03-24T19:36:22.268Z,73.25
2019-03-24T19:38:53.859Z,74.42
2019-03-24T19:41:25.329Z,74.61
2019-03-24T19:43:56.648Z,75.20
2019-03-24T19:46:28.135Z,76.46
2019-03-24T19:48:59.719Z,76.11
2019-03-24T19:51:30.931Z,75.34
2019-03-24T19:54:03.961Z,75.52
2019-03-24T19:56:35.246Z,74.85
2019-03-24T19:59:06.837Z,74.16
2019-03-24T20:01:38.291Z,74.08
2019-03-24T20:04:09.731Z,74.06
2019-03-24T20:06:41.038Z,74.25
2019-03-24T20:09:12.206Z,74.16
2019-03-24T20:11:43.479Z,72.98
2019-03-24T20:14:14.749Z,73.17
2019-03-24T20:16:45.874Z,74.07
2019-03-24T20:19:17.291Z,73.96
2019-03-24T20:21:48.351Z,73.52
2019-03-24T20:24:19.390Z,73.48
2019-03-24T20:26:50.771Z,73.58
2019-03-24T20:29:22.509Z,73.86
2019-03-24T20:31:53.851Z,73.98
2019-03-24T20:34:26.778Z,73.82
2019-03-24T20:36:58.300Z,73.87
2019-03-24T20:39:29.922Z,73.72
2019-03-24T20:42:01.113Z,73.52
2019-03-24T20:44:32.468Z,73.77
2019-03-24T20:47:03.739Z,74.06
2019-03-24T20:49:36.703Z,74.07
2019-03-24T20:52:07.973Z,73.98
2019-03-24T20:54:40.784Z,74.72
2019-03-24T20:57:12.334Z,75.21
2019-03-24T20:59:43.561Z,75.57
2019-03-24T21:02:14.631Z,75.79
2019-03-24T21:04:47.076Z,76.14
2019-03-24T21:07:18.074Z,75.95
2019-03-24T21:09:49.266Z,75.83
2019-03-24T21:12:20.463Z,75.74
2019-03-24T21:14:53.134Z,75.85
2019-03-24T21:17:24.022Z,76.00
2019-03-24T21:19:57.008Z,75.86
2019-03-24T21:22:28.489Z,75.64
2019-03-24T21:25:00.357Z,75.44
2019-03-24T21:27:32.022Z,75.69
2019-03-24T21:30:03.351Z,76.40
2019-03-24T21:32:34.751Z,76.91
2019-03-24T21:35:06.025Z,76.80
2019-03-24T21:37:37.582Z,76.50
2019-03-24T21:40:09.523Z,76.31
2019-03-24T21:42:41.315Z,76.37
2019-03-24T21:45:12.024Z,76.33
2019-03-24T21:47:43.329Z,76.21
2019-03-24T21:50:14.675Z,76.72
2019-03-24T21:52:45.932Z,78.05
2019-03-24T21:55:17.251Z,79.09
2019-03-24T21:57:57.088Z,78.65
2019-03-24T22:00:33.400Z,78.26
2019-03-24T22:03:04.640Z,78.07
2019-03-24T22:05:37.060Z,77.91
2019-03-24T22:08:08.464Z,77.82
2019-03-24T22:10:39.647Z,78.01
2019-03-24T22:13:12.769Z,78.07
2019-03-24T22:15:44.054Z,78.32
2019-03-24T22:18:15.284Z,78.55
2019-03-24T22:20:49.050Z,78.80
2019-03-24T22:23:19.241Z,78.97
2019-03-24T22:25:50.354Z,79.00
2019-03-24T22:28:21.762Z,78.86
2019-03-24T22:30:54.499Z,78.71
2019-03-24T22:33:25.944Z,78.74
2019-03-24T22:35:56.968Z,78.89
2019-03-24T22:38:27.929Z,79.24
2019-03-24T22:40:59.066Z,79.22
2019-03-24T22:43:30.286Z,79.06
2019-03-24T22:46:03.261Z,78.98
2019-03-24T22:48:33.976Z,78.97
2019-03-24T22:51:05.273Z,78.91
2019-03-24T22:53:36.338Z,79.15
2019-03-24T22:56:07.424Z,79.32
2019-03-24T22:58:38.490Z,79.51
2019-03-24T23:01:09.909Z,79.59
2019-03-24T23:03:43.147Z,80.57
2019-03-24T23:06:14.398Z,80.29
2019-03-24T23:08:46.409Z,80.04
2019-03-24T23:11:17.826Z,79.78
2019-03-24T23:13:49.046Z,80.15
2019-03-24T23:16:20.107Z,80.32
2019-03-24T23:18:51.436Z,80.22
2019-03-24T23:21:22.622Z,80.07
2019-03-24T23:23:55.522Z,80.04
2019-03-24T23:26:26.418Z,81.60
2019-03-24T23:28:57.498Z,81.62
2019-03-24T23:31:28.334Z,81.53
2019-03-24T23:33:59.827Z,81.16
2019-03-24T23:36:30.929Z,81.04
2019-03-24T23:39:04.548Z,81.07
2019-03-24T23:41:35.495Z,81.09
2019-03-24T23:44:06.772Z,80.88
2019-03-24T23:46:37.834Z,80.53
2019-03-24T23:49:08.830Z,80.45
2019-03-24T23:51:40.167Z,80.50
2019-03-24T23:54:11.194Z,80.07
2019-03-24T23:56:42.193Z,79.14
2019-03-24T23:59:13.951Z,77.94
